createdAt,value
2019-03-21T00:00:49.506Z,67.02
2019-03-21T00:03:00.032Z,67.12
2019-03-21T00:05:52.498Z,66.94
2019-03-21T00:08:44.964Z,66.93
2019-03-21T00:11:35.492Z,66.80
2019-03-21T00:13:46.301Z,66.58
2019-03-21T00:16:38.807Z,67.23
2019-03-21T00:18:49.631Z,67.51
2019-03-21T00:21:00.452Z,68.00
2019-03-21T00:23:11.357Z,68.12
2019-03-21T00:26:03.932Z,68.13
2019-03-21T00:28:14.706Z,68.24
2019-03-21T00:31:07.198Z,68.11
2019-03-21T00:33:18.010Z,67.95
2019-03-21T00:35:28.966Z,67.52
2019-03-21T00:37:39.761Z,67.59
2019-03-21T00:39:50.591Z,67.38
2019-03-21T00:42:01.401Z,67.20
2019-03-21T00:44:18.020Z,67.30
2019-03-21T00:46:24.911Z,67.60
2019-03-21T00:48:35.725Z,67.91
2019-03-21T00:51:06.472Z,68.38
2019-03-21T00:53:17.341Z,68.38
2019-03-21T00:56:09.815Z,68.43
2019-03-21T00:58:20.604Z,68.48
2019-03-21T01:01:13.076Z,69.00
2019-03-21T01:03:24.075Z,69.01
2019-03-21T01:05:34.875Z,69.17
2019-03-21T01:07:45.894Z,69.65
2019-03-21T01:09:56.695Z,69.73
2019-03-21T01:12:07.606Z,69.96
2019-03-21T01:14:29.206Z,70.23
2019-03-21T01:16:31.146Z,69.99
2019-03-21T01:19:23.616Z,70.22
2019-03-21T01:21:34.434Z,69.96
2019-03-21T01:23:45.241Z,69.80
2019-03-21T01:26:37.735Z,69.94
2019-03-21T01:28:48.521Z,70.10
2019-03-21T01:30:59.326Z,69.91
2019-03-21T01:33:10.138Z,69.96
2019-03-21T01:35:20.967Z,70.01
2019-03-21T01:37:31.876Z,70.23
2019-03-21T01:39:42.735Z,70.32
2019-03-21T01:41:53.588Z,70.42
2019-03-21T01:44:04.414Z,70.39
2019-03-21T01:46:56.886Z,70.64
2019-03-21T01:49:07.685Z,71.09
2019-03-21T01:51:18.607Z,71.01
2019-03-21T01:53:29.431Z,70.68
2019-03-21T01:55:40.240Z,70.44
2019-03-21T01:57:51.057Z,70.24
2019-03-21T02:00:43.525Z,70.07
2019-03-21T02:03:35.995Z,70.15
2019-03-21T02:05:46.822Z,70.10
2019-03-21T02:07:57.661Z,70.06
2019-03-21T02:10:50.119Z,69.84
2019-03-21T02:13:00.932Z,69.77
2019-03-21T02:15:53.398Z,69.85
2019-03-21T02:18:45.859Z,69.97
2019-03-21T02:20:56.666Z,70.34
2019-03-21T02:23:07.467Z,70.45
2019-03-21T02:25:39.181Z,70.57
2019-03-21T02:27:50.100Z,70.30
2019-03-21T02:30:00.951Z,70.68
2019-03-21T02:32:11.749Z,70.91
2019-03-21T02:34:22.586Z,71.17
2019-03-21T02:36:33.402Z,71.25
2019-03-21T02:38:44.217Z,71.06
2019-03-21T02:41:36.685Z,71.08
2019-03-21T02:43:47.508Z,71.34
2019-03-21T02:45:58.344Z,71.95
2019-03-21T02:48:09.188Z,72.00
2019-03-21T02:51:01.671Z,72.45
2019-03-21T02:53:12.475Z,72.67
2019-03-21T02:56:04.940Z,72.45
2019-03-21T02:58:15.841Z,72.33
2019-03-21T03:01:08.297Z,72.40
2019-03-21T03:03:19.124Z,72.24
2019-03-21T03:06:11.666Z,72.19
2019-03-21T03:08:22.478Z,71.97
2019-03-21T03:10:53.668Z,71.99
2019-03-21T03:13:04.555Z,72.11
2019-03-21T03:15:35.646Z,72.80
2019-03-21T03:17:46.542Z,72.83
2019-03-21T03:19:57.361Z,72.79
2019-03-21T03:22:08.161Z,72.58
2019-03-21T03:25:00.637Z,72.52
2019-03-21T03:27:11.532Z,72.23
2019-03-21T03:29:22.353Z,72.09
2019-03-21T03:31:33.167Z,72.00
2019-03-21T03:33:43.977Z,72.04
2019-03-21T03:35:54.872Z,72.05
2019-03-21T03:38:05.596Z,72.18
2019-03-21T03:40:58.080Z,72.79
2019-03-21T03:43:08.868Z,73.05
2019-03-21T03:46:01.347Z,73.71
2019-03-21T03:48:12.252Z,73.61
2019-03-21T03:50:23.062Z,73.47
2019-03-21T03:52:33.903Z,73.80
2019-03-21T03:54:44.677Z,73.55
2019-03-21T03:56:55.497Z,73.27
2019-03-21T03:59:47.938Z,72.99
2019-03-21T04:01:58.761Z,72.87
2019-03-21T04:04:09.714Z,72.84
2019-03-21T04:06:20.612Z,72.98
2019-03-21T04:08:31.505Z,72.94
2019-03-21T04:11:24.001Z,73.36
2019-03-21T04:13:34.799Z,73.25
2019-03-21T04:15:52.429Z,73.27
2019-03-21T04:17:58.534Z,73.40
2019-03-21T04:20:50.977Z,73.40
2019-03-21T04:23:01.905Z,73.65
2019-03-21T04:25:54.366Z,73.83
2019-03-21T04:28:05.181Z,73.63
2019-03-21T04:30:35.922Z,73.97
2019-03-21T04:32:46.728Z,74.05
2019-03-21T04:34:57.533Z,74.01
2019-03-21T04:37:08.382Z,73.90
2019-03-21T04:39:19.185Z,73.55
2019-03-21T04:41:29.980Z,73.52
2019-03-21T04:43:40.805Z,73.31
2019-03-21T04:46:02.556Z,73.08
2019-03-21T04:48:04.419Z,72.88
2019-03-21T04:50:54.966Z,72.82
2019-03-21T04:53:05.782Z,72.50
2019-03-21T04:55:16.578Z,72.49
2019-03-21T04:57:27.364Z,72.40
2019-03-21T04:59:38.219Z,72.28
2019-03-21T05:01:49.024Z,72.25
2019-03-21T05:03:59.866Z,72.23
2019-03-21T05:06:10.669Z,72.07
2019-03-21T05:08:21.507Z,71.87
2019-03-21T05:10:32.309Z,72.57
2019-03-21T05:12:43.109Z,73.09
2019-03-21T05:14:53.925Z,73.86
2019-03-21T05:17:04.712Z,73.88
2019-03-21T05:19:15.545Z,73.90
2019-03-21T05:21:26.341Z,73.86
2019-03-21T05:23:37.151Z,73.74
2019-03-21T05:25:47.971Z,73.76
2019-03-21T05:27:58.787Z,73.67
2019-03-21T05:30:51.262Z,73.66
2019-03-21T05:33:02.279Z,73.20
2019-03-21T05:35:13.141Z,72.33
2019-03-21T05:37:23.937Z,72.75
2019-03-21T05:39:34.775Z,72.95
2019-03-21T05:41:45.583Z,73.03
2019-03-21T05:44:38.101Z,73.02
2019-03-21T05:46:48.913Z,72.93
2019-03-21T05:48:59.840Z,72.74
2019-03-21T05:51:10.638Z,72.19
2019-03-21T05:53:21.454Z,71.33
2019-03-21T05:55:32.281Z,70.02
2019-03-21T05:57:43.177Z,68.68
2019-03-21T05:59:54.001Z,67.76
2019-03-21T06:02:05.005Z,66.87
2019-03-21T06:04:15.809Z,66.78
2019-03-21T06:07:06.383Z,66.17
2019-03-21T06:09:58.893Z,65.43
2019-03-21T06:12:09.715Z,65.13
2019-03-21T06:14:20.595Z,65.45
2019-03-21T06:16:37.552Z,66.17
2019-03-21T06:19:23.938Z,66.96
2019-03-21T06:22:16.391Z,67.36
2019-03-21T06:25:06.968Z,67.20
2019-03-21T06:27:37.675Z,66.43
2019-03-21T06:29:48.475Z,66.25
2019-03-21T06:31:59.322Z,66.85
2019-03-21T06:34:10.127Z,67.08
2019-03-21T06:36:20.972Z,67.31
2019-03-21T06:38:31.764Z,67.47
2019-03-21T06:40:42.605Z,67.53
2019-03-21T06:42:53.447Z,67.60
2019-03-21T06:45:48.163Z,68.03
2019-03-21T06:47:58.677Z,68.30
2019-03-21T06:50:09.577Z,67.29
2019-03-21T06:52:20.406Z,64.93
2019-03-21T06:54:31.211Z,62.10
2019-03-21T06:56:42.188Z,60.18
2019-03-21T06:58:53.003Z,58.23
2019-03-21T07:01:03.838Z,55.74
2019-03-21T07:03:16.415Z,53.49
2019-03-21T07:05:27.358Z,52.25
2019-03-21T07:07:38.281Z,51.22
2019-03-21T07:09:49.105Z,50.15
2019-03-21T07:11:59.932Z,49.70
2019-03-21T07:14:10.777Z,47.97
2019-03-21T07:16:21.556Z,47.00
2019-03-21T07:18:32.400Z,45.96
2019-03-21T07:20:43.220Z,45.68
2019-03-21T07:22:54.040Z,44.78
2019-03-21T07:25:46.470Z,45.50
2019-03-21T07:27:57.317Z,43.71
2019-03-21T07:30:49.755Z,42.70
2019-03-21T07:33:00.577Z,42.00
2019-03-21T07:35:11.467Z,41.66
2019-03-21T07:37:22.448Z,42.75
2019-03-21T07:39:33.239Z,43.16
2019-03-21T07:41:44.034Z,42.39
2019-03-21T07:43:54.977Z,42.58
2019-03-21T07:46:05.837Z,41.57
2019-03-21T07:48:16.611Z,40.11
2019-03-21T07:50:27.414Z,40.96
2019-03-21T07:52:38.317Z,40.29
2019-03-21T07:54:49.134Z,40.51
2019-03-21T07:57:00.051Z,40.32
2019-03-21T07:59:10.892Z,46.06
2019-03-21T08:01:21.738Z,42.10
2019-03-21T08:03:32.561Z,37.15
2019-03-21T08:05:43.380Z,35.22
2019-03-21T08:07:54.178Z,35.56
2019-03-21T08:10:46.637Z,35.67
2019-03-21T08:13:17.315Z,36.25
2019-03-21T08:15:28.151Z,35.81
2019-03-21T08:17:39.075Z,35.04
2019-03-21T08:19:49.938Z,35.81
2019-03-21T08:22:00.750Z,34.72
2019-03-21T08:24:11.550Z,35.56
2019-03-21T08:26:22.384Z,34.88
2019-03-21T08:28:33.277Z,36.08
2019-03-21T08:31:25.773Z,35.75
2019-03-21T08:33:36.598Z,36.42
2019-03-21T08:35:47.445Z,36.64
2019-03-21T08:37:58.249Z,37.26
2019-03-21T08:40:09.189Z,36.62
2019-03-21T08:42:39.872Z,35.52
2019-03-21T08:44:50.677Z,36.23
2019-03-21T08:47:01.662Z,39.71
2019-03-21T08:49:12.487Z,35.44
2019-03-21T08:51:23.446Z,35.00
2019-03-21T08:53:34.265Z,34.90
2019-03-21T08:55:45.105Z,39.34
2019-03-21T08:57:55.915Z,37.73
2019-03-21T09:00:48.372Z,34.12
2019-03-21T09:02:59.162Z,33.65
2019-03-21T09:08:02.539Z,33.42
2019-03-21T09:10:13.570Z,33.38
2019-03-21T09:13:06.024Z,34.25
2019-03-21T09:15:16.833Z,35.02
2019-03-21T09:17:27.692Z,33.81
2019-03-21T09:19:38.502Z,34.51
2019-03-21T09:21:49.319Z,32.36
2019-03-21T09:24:00.209Z,31.91
2019-03-21T09:26:11.026Z,30.70
2019-03-21T09:28:21.852Z,30.08
2019-03-21T09:30:32.701Z,29.85
2019-03-21T09:32:43.614Z,29.03
2019-03-21T09:34:54.430Z,29.51
2019-03-21T09:37:05.291Z,29.32
2019-03-21T09:39:16.151Z,28.84
2019-03-21T09:41:27.067Z,29.93
2019-03-21T09:43:37.908Z,29.67
2019-03-21T09:45:48.714Z,29.46
2019-03-21T09:47:59.546Z,29.46
2019-03-21T09:50:51.990Z,30.84
2019-03-21T09:53:02.807Z,30.43
2019-03-21T09:55:13.597Z,30.40
2019-03-21T09:57:24.418Z,30.81
2019-03-21T09:59:35.221Z,30.67
2019-03-21T10:01:46.008Z,31.28
2019-03-21T10:03:56.843Z,30.98
2019-03-21T10:08:59.876Z,30.70
2019-03-21T10:11:52.343Z,35.34
2019-03-21T10:14:44.814Z,32.14
2019-03-21T10:16:55.623Z,32.07
2019-03-21T10:19:06.428Z,30.68
2019-03-21T10:21:17.230Z,29.75
2019-03-21T10:23:28.055Z,29.34
2019-03-21T10:25:38.891Z,29.63
2019-03-21T10:27:49.680Z,30.42
2019-03-21T10:30:00.525Z,29.93
2019-03-21T10:32:14.475Z,31.33
2019-03-21T10:34:24.063Z,33.65
2019-03-21T10:36:34.880Z,31.31
2019-03-21T10:38:45.710Z,29.98
2019-03-21T10:40:56.610Z,31.65
2019-03-21T10:43:10.314Z,32.09
2019-03-21T10:45:20.353Z,30.29
2019-03-21T10:47:31.179Z,28.89
2019-03-21T10:49:42.019Z,29.98
2019-03-21T10:51:55.273Z,28.19
2019-03-21T10:54:05.516Z,27.89
2019-03-21T10:56:16.344Z,28.76
2019-03-21T10:58:27.190Z,28.77
2019-03-21T11:00:38.228Z,27.89
2019-03-21T11:02:49.037Z,28.29
2019-03-21T11:04:59.829Z,28.44
2019-03-21T11:07:10.466Z,30.13
2019-03-21T11:09:21.335Z,30.64
2019-03-21T11:11:32.153Z,29.47
2019-03-21T11:13:42.945Z,27.80
2019-03-21T11:15:53.796Z,29.42
2019-03-21T11:18:11.280Z,29.27
2019-03-21T11:20:41.948Z,28.67
2019-03-21T11:22:52.817Z,28.02
2019-03-21T11:25:45.285Z,28.30
2019-03-21T11:27:56.197Z,29.06
2019-03-21T11:30:15.585Z,27.87
2019-03-21T11:34:37.279Z,27.44
2019-03-21T11:36:48.153Z,28.09
2019-03-21T11:39:18.824Z,27.94
2019-03-21T11:41:29.659Z,27.55
2019-03-21T11:43:40.465Z,28.28
2019-03-21T11:45:51.371Z,27.53
2019-03-21T11:48:43.887Z,28.99
2019-03-21T11:50:54.702Z,28.38
2019-03-21T11:53:05.503Z,28.94
2019-03-21T11:55:16.439Z,29.05
2019-03-21T11:57:27.265Z,29.12
2019-03-21T11:59:50.756Z,28.56
2019-03-21T12:01:50.807Z,28.35
2019-03-21T12:04:01.635Z,28.17
2019-03-21T12:06:12.447Z,27.49
2019-03-21T12:08:23.274Z,27.86
2019-03-21T12:10:34.088Z,28.23
2019-03-21T12:12:44.923Z,28.16
2019-03-21T12:14:55.729Z,27.32
2019-03-21T12:17:06.550Z,27.39
2019-03-21T12:19:17.386Z,28.77
2019-03-21T12:21:28.181Z,28.06
2019-03-21T12:23:39.005Z,28.86
2019-03-21T12:25:49.795Z,29.05
2019-03-21T12:28:01.707Z,29.57
2019-03-21T12:30:33.988Z,27.64
2019-03-21T12:32:44.790Z,28.37
2019-03-21T12:34:55.614Z,28.52
2019-03-21T12:37:06.423Z,27.22
2019-03-21T12:39:17.399Z,27.32
2019-03-21T12:41:28.202Z,28.45
2019-03-21T12:43:39.102Z,27.41
2019-03-21T12:45:49.915Z,28.05
2019-03-21T12:48:00.823Z,27.01
2019-03-21T12:50:11.748Z,28.45
2019-03-21T12:52:22.551Z,27.98
2019-03-21T12:54:33.379Z,27.24
2019-03-21T12:56:44.229Z,28.15
2019-03-21T12:58:55.045Z,28.10
2019-03-21T13:01:05.865Z,27.51
2019-03-21T13:03:16.659Z,27.26
2019-03-21T13:06:09.131Z,26.99
2019-03-21T13:08:20.011Z,26.78
2019-03-21T13:12:49.508Z,27.22
2019-03-21T13:15:00.375Z,27.98
2019-03-21T13:17:11.265Z,28.26
2019-03-21T13:19:22.083Z,27.01
2019-03-21T13:21:32.916Z,27.46
2019-03-21T13:23:43.725Z,28.79
2019-03-21T13:25:54.702Z,28.40
2019-03-21T13:28:05.722Z,28.31
2019-03-21T13:30:16.760Z,27.76
2019-03-21T13:32:27.563Z,27.16
2019-03-21T13:34:38.384Z,27.47
2019-03-21T13:36:49.227Z,28.30
2019-03-21T13:39:19.936Z,26.35
2019-03-21T13:41:30.787Z,26.35
2019-03-21T13:43:41.629Z,28.87
2019-03-21T13:45:52.444Z,27.70
2019-03-21T13:48:03.396Z,27.89
2019-03-21T13:50:14.327Z,26.82
2019-03-21T13:52:25.123Z,26.89
2019-03-21T13:54:36.095Z,26.82
2019-03-21T13:56:47.016Z,29.75
2019-03-21T13:58:57.830Z,28.35
2019-03-21T14:01:08.706Z,26.34
2019-03-21T14:03:24.936Z,26.71
2019-03-21T14:05:32.249Z,27.34
2019-03-21T14:07:43.098Z,26.33
2019-03-21T14:09:53.899Z,27.41
2019-03-21T14:12:04.724Z,26.20
2019-03-21T14:14:15.561Z,26.40
2019-03-21T14:16:26.386Z,26.73
2019-03-21T14:18:37.184Z,27.25
2019-03-21T14:20:47.995Z,26.96
2019-03-21T14:22:58.821Z,26.83
2019-03-21T14:25:29.491Z,27.46
2019-03-21T14:27:40.339Z,28.07
2019-03-21T14:30:00.755Z,26.99
2019-03-21T14:32:03.898Z,28.26
2019-03-21T14:34:14.714Z,28.16
2019-03-21T14:36:25.518Z,30.19
2019-03-21T14:38:36.382Z,30.99
2019-03-21T14:40:47.204Z,31.06
2019-03-21T14:42:58.029Z,31.03
2019-03-21T14:45:50.493Z,30.96
2019-03-21T14:48:01.302Z,30.77
2019-03-21T14:50:53.751Z,31.56
2019-03-21T14:53:04.573Z,31.46
2019-03-21T14:55:15.407Z,30.58
2019-03-21T14:57:26.221Z,29.96
2019-03-21T14:59:37.028Z,28.79
2019-03-21T15:01:47.848Z,30.22
2019-03-21T15:03:58.669Z,30.66
2019-03-21T15:06:09.461Z,31.17
2019-03-21T15:08:20.283Z,29.96
2019-03-21T15:10:31.168Z,31.32
2019-03-21T15:12:41.984Z,31.17
2019-03-21T15:14:52.822Z,30.37
2019-03-21T15:17:03.646Z,31.80
2019-03-21T15:19:14.481Z,31.10
2019-03-21T15:21:25.306Z,31.05
2019-03-21T15:23:40.992Z,30.72
2019-03-21T15:25:48.996Z,31.18
2019-03-21T15:27:59.832Z,31.35
2019-03-21T15:30:52.296Z,31.05
2019-03-21T15:33:03.157Z,31.17
2019-03-21T15:35:55.602Z,31.47
2019-03-21T15:38:06.565Z,32.14
2019-03-21T15:40:17.481Z,32.29
2019-03-21T15:42:28.308Z,30.72
2019-03-21T15:44:39.120Z,30.96
2019-03-21T15:46:49.938Z,30.46
2019-03-21T15:49:00.760Z,30.82
2019-03-21T15:51:11.609Z,30.55
2019-03-21T15:53:22.410Z,30.60
2019-03-21T15:55:33.375Z,30.86
2019-03-21T15:57:44.190Z,30.17
2019-03-21T15:59:55.029Z,29.73
2019-03-21T16:02:05.851Z,29.45
2019-03-21T16:04:16.697Z,30.19
2019-03-21T16:06:27.490Z,31.10
2019-03-21T16:08:38.298Z,29.95
2019-03-21T16:10:49.128Z,30.18
2019-03-21T16:15:52.185Z,29.77
2019-03-21T16:18:44.641Z,28.97
2019-03-21T16:20:55.458Z,29.04
2019-03-21T16:23:06.251Z,29.49
2019-03-21T16:25:17.083Z,29.29
2019-03-21T16:27:27.898Z,29.33
2019-03-21T16:29:38.744Z,28.97
2019-03-21T16:31:49.581Z,29.00
2019-03-21T16:34:00.374Z,29.29
2019-03-21T16:36:11.314Z,29.03
2019-03-21T16:38:22.155Z,29.09
2019-03-21T16:40:33.003Z,29.13
2019-03-21T16:42:43.812Z,28.54
2019-03-21T16:44:54.618Z,28.41
2019-03-21T16:47:05.543Z,28.74
2019-03-21T16:49:16.332Z,28.90
2019-03-21T16:51:27.162Z,29.20
2019-03-21T16:53:38.076Z,28.55
2019-03-21T16:55:48.896Z,28.76
2019-03-21T16:57:59.716Z,28.98
2019-03-21T17:00:30.380Z,29.15
2019-03-21T17:02:41.186Z,29.42
2019-03-21T17:07:44.297Z,29.13
2019-03-21T17:09:57.838Z,29.31
2019-03-21T17:12:07.904Z,29.24
2019-03-21T17:14:18.736Z,29.69
2019-03-21T17:16:29.635Z,29.80
2019-03-21T17:18:40.590Z,29.68
2019-03-21T17:20:51.453Z,29.97
2019-03-21T17:23:02.390Z,30.09
2019-03-21T17:25:54.816Z,30.05
2019-03-21T17:28:05.695Z,30.27
2019-03-21T17:30:16.699Z,30.36
2019-03-21T17:32:27.618Z,31.24
2019-03-21T17:34:38.433Z,31.72
2019-03-21T17:36:49.226Z,32.15
2019-03-21T17:39:00.069Z,32.56
2019-03-21T17:41:10.889Z,33.40
2019-03-21T17:43:21.719Z,34.46
2019-03-21T17:45:32.651Z,35.01
2019-03-21T17:47:43.523Z,36.06
2019-03-21T17:49:54.309Z,37.16
2019-03-21T17:52:05.137Z,38.01
2019-03-21T17:54:15.967Z,38.83
2019-03-21T17:56:26.775Z,39.15
2019-03-21T17:58:37.607Z,39.91
2019-03-21T18:00:48.416Z,40.32
2019-03-21T18:02:59.247Z,40.94
2019-03-21T18:05:10.044Z,41.80
2019-03-21T18:07:20.886Z,42.47
2019-03-21T18:09:31.706Z,44.83
2019-03-21T18:11:42.560Z,43.54
2019-03-21T18:13:53.363Z,42.95
2019-03-21T18:16:04.282Z,43.36
2019-03-21T18:18:15.114Z,43.46
2019-03-21T18:20:26.152Z,43.98
2019-03-21T18:22:36.944Z,44.01
2019-03-21T18:24:53.739Z,44.82
2019-03-21T18:27:00.534Z,44.44
2019-03-21T18:29:11.336Z,44.66
2019-03-21T18:31:22.188Z,44.80
2019-03-21T18:33:32.991Z,44.82
2019-03-21T18:35:43.833Z,45.08
2019-03-21T18:37:54.659Z,45.41
2019-03-21T18:40:27.271Z,45.97
2019-03-21T18:42:38.071Z,45.95
2019-03-21T18:44:50.525Z,46.32
2019-03-21T18:47:01.649Z,46.47
2019-03-21T18:49:12.621Z,46.97
2019-03-21T18:51:23.447Z,47.68
2019-03-21T18:53:34.254Z,47.87
2019-03-21T18:55:45.212Z,47.73
2019-03-21T18:57:56.018Z,47.88
2019-03-21T19:00:26.724Z,47.52
2019-03-21T19:02:37.517Z,47.66
2019-03-21T19:04:48.323Z,48.09
2019-03-21T19:06:59.276Z,48.13
2019-03-21T19:09:10.170Z,47.98
2019-03-21T19:11:21.006Z,48.31
2019-03-21T19:13:31.796Z,48.95
2019-03-21T19:15:42.781Z,49.42
2019-03-21T19:17:53.636Z,49.65
2019-03-21T19:20:46.125Z,49.98
2019-03-21T19:22:56.962Z,50.32
2019-03-21T19:25:49.504Z,49.55
2019-03-21T19:28:00.329Z,49.51
2019-03-21T19:30:52.817Z,49.93
2019-03-21T19:33:03.741Z,50.22
2019-03-21T19:35:14.684Z,50.32
2019-03-21T19:37:25.568Z,50.15
2019-03-21T19:39:36.381Z,50.21
2019-03-21T19:41:47.227Z,50.23
2019-03-21T19:43:58.034Z,50.45
2019-03-21T19:46:08.888Z,50.34
2019-03-21T19:48:19.714Z,50.43
2019-03-21T19:50:30.535Z,50.91
2019-03-21T19:52:41.356Z,51.17
2019-03-21T19:54:52.171Z,51.85
2019-03-21T19:57:03.151Z,51.85
2019-03-21T19:59:13.989Z,51.61
2019-03-21T20:01:24.775Z,52.10
2019-03-21T20:03:35.634Z,51.87
2019-03-21T20:05:46.444Z,51.95
2019-03-21T20:07:57.303Z,52.01
2019-03-21T20:10:49.759Z,51.88
2019-03-21T20:13:00.600Z,51.89
2019-03-21T20:15:53.061Z,52.06
2019-03-21T20:18:04.038Z,52.01
2019-03-21T20:20:56.489Z,51.87
2019-03-21T20:23:07.327Z,52.09
2019-03-21T20:25:18.228Z,52.74
2019-03-21T20:27:29.055Z,52.90
2019-03-21T20:29:39.898Z,52.82
2019-03-21T20:31:50.860Z,52.56
2019-03-21T20:34:01.694Z,52.71
2019-03-21T20:36:12.494Z,52.55
2019-03-21T20:38:23.383Z,52.26
2019-03-21T20:40:34.217Z,52.03
2019-03-21T20:42:45.230Z,52.05
2019-03-21T20:44:56.161Z,52.83
2019-03-21T20:47:06.999Z,53.22
2019-03-21T20:49:17.826Z,53.82
2019-03-21T20:51:28.741Z,54.01
2019-03-21T20:53:39.544Z,54.34
2019-03-21T20:55:53.945Z,54.39
2019-03-21T20:58:03.204Z,54.37
2019-03-21T21:00:55.697Z,54.25
2019-03-21T21:03:06.513Z,54.43
2019-03-21T21:05:17.455Z,54.59
2019-03-21T21:07:28.284Z,54.65
2019-03-21T21:09:39.106Z,54.62
2019-03-21T21:11:49.959Z,54.77
2019-03-21T21:14:00.760Z,55.13
2019-03-21T21:16:11.608Z,55.14
2019-03-21T21:18:22.421Z,55.28
2019-03-21T21:20:33.237Z,56.35
2019-03-21T21:22:44.065Z,56.73
2019-03-21T21:24:54.907Z,57.08
2019-03-21T21:27:05.737Z,57.17
2019-03-21T21:29:16.566Z,57.23
2019-03-21T21:31:27.374Z,57.22
2019-03-21T21:33:38.192Z,57.14
2019-03-21T21:35:48.999Z,57.12
2019-03-21T21:37:59.862Z,57.31
2019-03-21T21:40:52.408Z,57.30
2019-03-21T21:43:03.527Z,57.59
2019-03-21T21:45:55.983Z,58.11
2019-03-21T21:48:06.833Z,58.07
2019-03-21T21:50:17.676Z,58.46
2019-03-21T21:52:28.521Z,58.38
2019-03-21T21:54:39.334Z,58.56
2019-03-21T21:56:50.139Z,59.02
2019-03-21T21:59:00.960Z,59.50
2019-03-21T22:01:11.803Z,59.75
2019-03-21T22:03:22.637Z,59.83
2019-03-21T22:05:33.427Z,60.09
2019-03-21T22:07:44.415Z,60.20
2019-03-21T22:09:55.387Z,60.06
2019-03-21T22:12:06.273Z,60.14
2019-03-21T22:14:17.180Z,60.22
2019-03-21T22:16:28.159Z,60.25
2019-03-21T22:18:39.408Z,60.35
2019-03-21T22:20:50.459Z,60.54
2019-03-21T22:23:01.295Z,60.97
2019-03-21T22:25:53.765Z,61.55
2019-03-21T22:28:04.628Z,62.17
2019-03-21T22:30:57.110Z,62.10
2019-03-21T22:33:08.036Z,62.07
2019-03-21T22:35:38.730Z,61.72
2019-03-21T22:37:49.553Z,61.72
2019-03-21T22:40:00.604Z,61.45
2019-03-21T22:42:11.407Z,61.17
2019-03-21T22:44:22.237Z,61.32
2019-03-21T22:46:33.068Z,61.36
2019-03-21T22:48:43.901Z,61.52
2019-03-21T22:50:54.690Z,61.54
2019-03-21T22:53:05.497Z,61.57
2019-03-21T22:55:16.348Z,62.28
2019-03-21T22:57:27.162Z,62.58
2019-03-21T22:59:37.996Z,62.68
2019-03-21T23:01:48.788Z,62.62
2019-03-21T23:03:59.720Z,62.59
2019-03-21T23:06:10.529Z,62.44
2019-03-21T23:08:21.321Z,62.45
2019-03-21T23:10:32.158Z,62.31
2019-03-21T23:12:43.054Z,61.99
2019-03-21T23:14:53.994Z,61.88
2019-03-21T23:17:04.765Z,61.62
2019-03-21T23:19:15.614Z,61.49
2019-03-21T23:21:26.421Z,61.92
2019-03-21T23:23:37.296Z,62.04
2019-03-21T23:25:48.117Z,62.40
2019-03-21T23:27:58.906Z,63.12
2019-03-21T23:30:33.417Z,63.65
2019-03-21T23:32:44.302Z,64.33
2019-03-21T23:34:55.113Z,64.37
2019-03-21T23:37:05.924Z,64.37
2019-03-21T23:39:16.762Z,64.65
2019-03-21T23:41:27.573Z,64.42
2019-03-21T23:43:38.389Z,64.58
2019-03-21T23:45:49.219Z,64.43
2019-03-21T23:48:00.037Z,64.57
2019-03-21T23:50:52.491Z,64.50
2019-03-21T23:53:03.328Z,64.31
2019-03-21T23:55:14.152Z,64.09
2019-03-21T23:57:25.083Z,64.18
2019-03-21T23:59:35.889Z,64.20
